createdAt,value
2022-11-14T00:00:22.560Z,10.10
2022-11-14T00:02:49.541Z,10.10
2022-11-14T00:05:16.592Z,10.10
2022-11-14T00:07:49.474Z,10.20
2022-11-14T00:10:16.663Z,10.10
2022-11-14T00:12:50.538Z,10.10
2022-11-14T00:15:17.694Z,10.10
2022-11-14T00:17:51.544Z,10.10
2022-11-14T00:20:18.449Z,10.10
2022-11-14T00:22:51.485Z,10.20
2022-11-14T00:25:18.433Z,10.20
2022-11-14T00:27:51.529Z,10.20
2022-11-14T00:30:18.552Z,10.20
2022-11-14T00:32:51.520Z,10.30
2022-11-14T00:35:18.386Z,10.30
2022-11-14T00:37:51.545Z,10.40
2022-11-14T00:40:18.568Z,10.30
2022-11-14T00:42:51.517Z,10.40
2022-11-14T00:45:18.432Z,10.30
2022-11-14T00:47:45.327Z,10.40
2022-11-14T00:50:18.590Z,10.40
2022-11-14T00:52:45.467Z,10.60
2022-11-14T00:55:18.536Z,10.50
2022-11-14T00:57:45.494Z,10.60
2022-11-14T01:00:13.812Z,10.80
2022-11-14T01:02:47.528Z,10.80
2022-11-14T01:05:14.467Z,10.80
2022-11-14T01:07:47.572Z,10.90
2022-11-14T01:10:14.491Z,10.90
2022-11-14T01:12:47.527Z,10.80
2022-11-14T01:15:14.409Z,10.90
2022-11-14T01:17:47.552Z,11.00
2022-11-14T01:20:15.772Z,10.90
2022-11-14T01:22:49.551Z,10.90
2022-11-14T01:25:18.113Z,10.90
2022-11-14T01:27:45.042Z,10.90
2022-11-14T01:30:19.562Z,11.00
2022-11-14T01:32:46.592Z,10.90
2022-11-14T01:35:19.565Z,10.80
2022-11-14T01:37:46.470Z,10.90
2022-11-14T01:40:19.569Z,10.80
2022-11-14T01:43:11.377Z,10.80
2022-11-14T01:46:12.567Z,10.80
2022-11-14T01:49:10.128Z,10.70
2022-11-14T01:51:49.579Z,10.80
2022-11-14T01:54:29.708Z,10.80
2022-11-14T01:57:05.582Z,10.70
2022-11-14T01:59:48.780Z,10.80
2022-11-14T02:02:27.577Z,10.90
2022-11-14T02:05:00.680Z,11.00
2022-11-14T02:07:35.599Z,11.20
2022-11-14T02:10:09.952Z,11.20
2022-11-14T02:12:43.628Z,11.10
2022-11-14T02:15:10.710Z,11.20
2022-11-14T02:17:44.571Z,11.30
2022-11-14T02:20:11.921Z,11.40
2022-11-14T02:22:46.567Z,11.40
2022-11-14T02:25:14.658Z,11.30
2022-11-14T02:27:47.554Z,11.30
2022-11-14T02:30:19.089Z,11.20
2022-11-14T02:33:11.686Z,11.30
2022-11-14T02:35:38.872Z,11.20
2022-11-14T02:38:12.587Z,11.20
2022-11-14T02:40:39.474Z,11.30
2022-11-14T02:43:12.612Z,11.40
2022-11-14T02:45:39.638Z,11.40
2022-11-14T02:48:12.683Z,11.40
2022-11-14T02:50:39.942Z,11.40
2022-11-14T02:53:13.619Z,11.40
2022-11-14T02:55:40.715Z,11.50
2022-11-14T02:58:14.652Z,11.50
2022-11-14T03:01:05.781Z,11.50
2022-11-14T03:03:34.595Z,11.40
2022-11-14T03:06:08.565Z,11.40
2022-11-14T03:08:35.459Z,11.50
2022-11-14T03:11:13.587Z,11.60
2022-11-14T03:13:40.443Z,11.60
2022-11-14T03:16:15.608Z,11.60
2022-11-14T03:18:42.565Z,11.60
2022-11-14T03:21:18.646Z,11.60
2022-11-14T03:23:45.724Z,11.60
2022-11-14T03:26:13.713Z,11.60
2022-11-14T03:28:47.710Z,11.40
2022-11-14T03:31:14.774Z,11.50
2022-11-14T03:33:54.674Z,11.40
2022-11-14T03:36:21.601Z,11.40
2022-11-14T03:38:54.612Z,11.40
2022-11-14T03:41:21.516Z,11.40
2022-11-14T03:43:54.613Z,11.40
2022-11-14T03:46:21.530Z,11.40
2022-11-14T03:48:54.607Z,11.20
2022-11-14T03:51:27.615Z,11.20
2022-11-14T03:53:54.462Z,11.20
2022-11-14T03:56:27.622Z,11.20
2022-11-14T03:58:54.453Z,11.10
2022-11-14T04:01:27.712Z,11.10
2022-11-14T04:03:54.805Z,11.10
2022-11-14T04:06:28.645Z,11.00
2022-11-14T04:08:55.569Z,11.20
2022-11-14T04:11:29.645Z,11.10
2022-11-14T04:13:56.534Z,11.20
2022-11-14T04:16:29.653Z,11.10
2022-11-14T04:18:56.510Z,11.10
2022-11-14T04:21:29.675Z,11.00
2022-11-14T04:23:56.524Z,11.10
2022-11-14T04:26:23.372Z,11.10
2022-11-14T04:28:56.635Z,11.10
2022-11-14T04:31:23.502Z,11.10
2022-11-14T04:33:56.648Z,11.10
2022-11-14T04:36:23.496Z,11.00
2022-11-14T04:38:56.653Z,11.00
2022-11-14T04:41:23.534Z,10.90
2022-11-14T04:43:56.644Z,10.90
2022-11-14T04:46:23.568Z,10.90
2022-11-14T04:48:50.405Z,10.90
2022-11-14T04:51:23.654Z,10.90
2022-11-14T04:53:50.572Z,10.90
2022-11-14T04:56:23.651Z,10.90
2022-11-14T04:58:50.475Z,11.00
2022-11-14T05:01:23.785Z,10.90
2022-11-14T05:03:50.740Z,10.90
2022-11-14T05:06:17.572Z,10.90
2022-11-14T05:08:51.675Z,10.90
2022-11-14T05:11:29.146Z,10.90
2022-11-14T05:14:02.692Z,10.90
2022-11-14T05:16:29.530Z,11.00
2022-11-14T05:19:02.674Z,11.00
2022-11-14T05:21:29.549Z,11.00
2022-11-14T05:24:02.710Z,11.00
2022-11-14T05:26:29.572Z,11.10
2022-11-14T05:29:02.685Z,11.10
2022-11-14T05:31:29.529Z,11.10
2022-11-14T05:34:02.674Z,11.10
2022-11-14T05:36:29.506Z,11.00
2022-11-14T05:39:02.698Z,11.10
2022-11-14T05:41:29.538Z,11.00
2022-11-14T05:44:02.704Z,11.00
2022-11-14T05:46:29.603Z,11.00
2022-11-14T05:49:02.687Z,11.10
2022-11-14T05:51:29.530Z,11.20
2022-11-14T05:54:02.678Z,11.10
2022-11-14T05:56:35.729Z,11.20
2022-11-14T05:59:02.675Z,11.20
2022-11-14T06:01:35.828Z,11.20
2022-11-14T06:04:05.251Z,11.20
2022-11-14T06:06:32.110Z,11.20
2022-11-14T06:09:05.684Z,11.20
2022-11-14T06:11:38.680Z,11.20
2022-11-14T06:14:10.447Z,11.20
2022-11-14T06:16:44.689Z,11.20
2022-11-14T06:19:11.521Z,11.20
2022-11-14T06:21:44.713Z,11.20
2022-11-14T06:24:11.571Z,11.20
2022-11-14T06:26:44.737Z,11.20
2022-11-14T06:29:11.641Z,11.10
2022-11-14T06:31:44.713Z,11.20
2022-11-14T06:34:11.980Z,11.20
2022-11-14T06:36:38.966Z,11.20
2022-11-14T06:39:12.717Z,11.10
2022-11-14T06:41:39.561Z,11.20
2022-11-14T06:44:14.770Z,11.30
2022-11-14T06:46:41.702Z,11.20
2022-11-14T06:49:14.726Z,11.20
2022-11-14T06:51:41.588Z,11.10
2022-11-14T06:54:18.730Z,11.20
2022-11-14T06:56:45.691Z,11.30
2022-11-14T06:59:18.723Z,11.30
2022-11-14T07:01:51.727Z,11.30
2022-11-14T07:04:18.565Z,11.40
2022-11-14T07:06:51.833Z,11.30
2022-11-14T07:09:18.771Z,11.30
2022-11-14T07:11:45.605Z,11.50
2022-11-14T07:14:18.706Z,11.40
2022-11-14T07:16:45.661Z,11.40
2022-11-14T07:19:18.722Z,11.40
2022-11-14T07:21:45.611Z,11.40
2022-11-14T07:24:18.738Z,11.50
2022-11-14T07:26:52.736Z,11.40
2022-11-14T07:29:19.598Z,11.60
2022-11-14T07:31:46.443Z,11.60
2022-11-14T07:34:19.766Z,11.60
2022-11-14T07:36:46.631Z,11.60
2022-11-14T07:39:19.731Z,11.60
2022-11-14T07:41:46.648Z,11.80
2022-11-14T07:44:19.756Z,11.70
2022-11-14T07:46:46.663Z,11.70
2022-11-14T07:49:13.499Z,11.80
2022-11-14T07:51:46.760Z,11.70
2022-11-14T07:54:13.715Z,11.70
2022-11-14T07:56:46.803Z,11.80
2022-11-14T07:59:13.824Z,11.80
2022-11-14T08:01:46.848Z,11.70
2022-11-14T08:04:13.878Z,11.80
2022-11-14T08:06:48.077Z,11.70
2022-11-14T08:09:21.951Z,11.80
2022-11-14T08:11:49.015Z,11.80
2022-11-14T08:14:22.794Z,11.90
2022-11-14T08:16:50.649Z,11.80
2022-11-14T08:19:23.947Z,11.70
2022-11-14T08:21:50.818Z,11.70
2022-11-14T08:24:24.793Z,11.80
2022-11-14T08:26:51.650Z,11.80
2022-11-14T08:29:18.545Z,11.70
2022-11-14T08:31:58.516Z,11.70
2022-11-14T08:34:26.791Z,11.70
2022-11-14T08:36:59.874Z,11.90
2022-11-14T08:39:26.783Z,11.90
2022-11-14T08:41:59.800Z,11.90
2022-11-14T08:44:51.809Z,12.00
2022-11-14T08:47:25.815Z,12.00
2022-11-14T08:49:52.653Z,11.90
2022-11-14T08:52:25.825Z,11.90
2022-11-14T08:54:52.742Z,11.90
2022-11-14T08:57:25.797Z,11.90
2022-11-14T08:59:52.711Z,12.00
2022-11-14T09:02:19.608Z,12.10
2022-11-14T09:04:52.906Z,12.20
2022-11-14T09:07:19.943Z,12.10
2022-11-14T09:09:53.909Z,12.10
2022-11-14T09:12:20.813Z,12.20
2022-11-14T09:14:54.907Z,12.20
2022-11-14T09:17:22.011Z,12.20
2022-11-14T09:19:55.903Z,12.10
2022-11-14T09:22:23.000Z,12.00
2022-11-14T09:24:57.009Z,12.20
2022-11-14T09:27:26.199Z,12.00
2022-11-14T09:29:59.820Z,11.90
2022-11-14T09:32:32.890Z,12.00
2022-11-14T09:34:59.808Z,11.90
2022-11-14T09:37:33.848Z,12.00
2022-11-14T09:40:06.841Z,12.10
2022-11-14T09:43:10.080Z,12.30
2022-11-14T09:45:43.853Z,12.30
2022-11-14T09:48:14.398Z,12.20
2022-11-14T09:50:52.821Z,12.20
2022-11-14T09:53:33.978Z,12.20
2022-11-14T09:56:07.821Z,12.20
2022-11-14T09:58:34.710Z,12.20
2022-11-14T10:01:34.970Z,12.10
2022-11-14T10:04:51.880Z,12.30
2022-11-14T10:07:34.973Z,12.30
2022-11-14T10:11:08.886Z,12.30
2022-11-14T10:13:56.918Z,12.20
2022-11-14T10:17:00.888Z,12.20
2022-11-14T10:19:53.510Z,12.30
2022-11-14T10:23:01.503Z,12.30
2022-11-14T10:25:59.398Z,12.50
2022-11-14T10:28:40.955Z,12.50
2022-11-14T10:31:35.415Z,12.70
2022-11-14T10:34:12.841Z,12.60
2022-11-14T10:37:26.863Z,12.60
2022-11-14T10:39:56.031Z,12.70
2022-11-14T10:42:44.848Z,12.70
2022-11-14T10:45:36.095Z,12.90
2022-11-14T10:48:27.012Z,13.00
2022-11-14T10:51:05.698Z,13.00
2022-11-14T10:54:13.843Z,13.30
2022-11-14T10:56:51.564Z,13.10
2022-11-14T10:59:25.889Z,13.20
2022-11-14T11:01:53.252Z,13.30
2022-11-14T11:04:37.848Z,13.50
2022-11-14T11:07:07.892Z,13.50
2022-11-14T11:09:42.196Z,13.30
2022-11-14T11:12:28.128Z,13.40
2022-11-14T11:15:14.928Z,13.60
2022-11-14T11:18:08.862Z,13.60
2022-11-14T11:20:37.431Z,13.50
2022-11-14T11:23:16.864Z,13.70
2022-11-14T11:25:43.715Z,13.70
2022-11-14T11:28:29.204Z,13.80
2022-11-14T11:31:05.224Z,13.90
2022-11-14T11:33:39.934Z,13.80
2022-11-14T11:36:13.959Z,13.80
2022-11-14T11:38:47.086Z,13.80
2022-11-14T11:44:22.885Z,13.60
2022-11-14T11:46:58.588Z,13.40
2022-11-14T11:49:47.425Z,13.50
2022-11-14T11:52:38.590Z,13.70
2022-11-14T11:55:33.910Z,13.60
2022-11-14T11:58:17.168Z,13.80
2022-11-14T12:00:50.921Z,13.80
2022-11-14T12:03:20.965Z,13.90
2022-11-14T12:05:59.913Z,13.90
2022-11-14T12:08:34.305Z,14.00
2022-11-14T12:11:08.911Z,14.00
2022-11-14T12:14:14.798Z,13.90
2022-11-14T12:17:30.898Z,13.90
2022-11-14T12:20:41.515Z,13.90
2022-11-14T12:23:38.038Z,13.90
2022-11-14T12:26:42.243Z,13.90
2022-11-14T12:29:44.918Z,13.80
2022-11-14T12:32:15.561Z,13.70
2022-11-14T12:34:51.949Z,13.90
2022-11-14T12:37:41.923Z,13.90
2022-11-14T12:40:27.908Z,14.00
2022-11-14T12:43:01.912Z,14.10
2022-11-14T12:45:40.759Z,14.00
2022-11-14T12:48:31.919Z,14.00
2022-11-14T12:50:59.450Z,14.10
2022-11-14T12:53:38.944Z,14.00
2022-11-14T12:56:41.938Z,13.80
2022-11-14T12:59:54.939Z,13.90
2022-11-14T13:02:51.088Z,14.10
2022-11-14T13:05:51.923Z,14.10
2022-11-14T13:08:58.915Z,14.10
2022-11-14T13:11:31.938Z,14.30
2022-11-14T13:14:07.997Z,14.20
2022-11-14T13:16:34.906Z,14.30
2022-11-14T13:19:16.955Z,14.20
2022-11-14T13:22:17.946Z,14.30
2022-11-14T13:25:05.913Z,14.10
2022-11-14T13:28:05.352Z,14.30
2022-11-14T13:31:22.936Z,14.40
2022-11-14T13:33:58.970Z,14.20
2022-11-14T13:36:53.923Z,14.30
2022-11-14T13:39:41.977Z,14.30
2022-11-14T13:43:01.948Z,14.40
2022-11-14T13:46:02.183Z,14.40
2022-11-14T13:48:54.953Z,14.50
2022-11-14T13:51:42.308Z,14.30
2022-11-14T13:54:21.984Z,14.50
2022-11-14T13:57:42.869Z,14.50
2022-11-14T14:00:21.425Z,14.50
2022-11-14T14:02:57.993Z,14.20
2022-11-14T14:06:10.254Z,14.10
2022-11-14T14:09:30.025Z,13.80
2022-11-14T14:12:09.615Z,13.90
2022-11-14T14:14:51.997Z,13.90
2022-11-14T14:17:53.132Z,13.90
2022-11-14T14:20:47.777Z,13.90
2022-11-14T14:23:52.456Z,13.90
2022-11-14T14:26:42.535Z,13.80
2022-11-14T14:29:41.456Z,14.00
2022-11-14T14:32:20.185Z,14.10
2022-11-14T14:34:56.376Z,14.10
2022-11-14T14:37:31.594Z,14.00
2022-11-14T14:40:16.484Z,13.90
2022-11-14T14:42:49.203Z,14.00
2022-11-14T14:45:31.813Z,14.10
2022-11-14T14:48:08.523Z,13.90
2022-11-14T14:51:10.810Z,13.90
2022-11-14T14:53:46.669Z,13.80
2022-11-14T14:56:31.911Z,13.80
2022-11-14T14:59:00.337Z,13.80
2022-11-14T15:01:42.822Z,13.80
2022-11-14T15:04:20.087Z,13.70
2022-11-14T15:06:47.450Z,13.70
2022-11-14T15:09:34.352Z,13.60
2022-11-14T15:12:01.404Z,13.50
2022-11-14T15:14:40.237Z,13.40
2022-11-14T15:17:07.217Z,13.30
2022-11-14T15:19:52.206Z,13.30
2022-11-14T15:22:19.126Z,13.30
2022-11-14T15:25:20.799Z,13.30
2022-11-14T15:27:52.301Z,13.20
2022-11-14T15:30:38.570Z,13.20
2022-11-14T15:33:24.229Z,13.10
2022-11-14T15:36:11.052Z,13.20
2022-11-14T15:38:44.042Z,13.10
2022-11-14T15:41:29.072Z,13.10
2022-11-14T15:43:58.176Z,13.00
2022-11-14T15:46:41.766Z,13.10
2022-11-14T15:49:25.019Z,13.00
2022-11-14T15:52:07.684Z,12.90
2022-11-14T15:54:35.924Z,12.80
2022-11-14T15:57:21.212Z,12.90
2022-11-14T15:59:48.761Z,12.80
2022-11-14T16:02:35.077Z,12.80
2022-11-14T16:05:10.075Z,12.60
2022-11-14T16:07:37.049Z,12.60
2022-11-14T16:10:11.070Z,12.60
2022-11-14T16:12:38.046Z,12.50
2022-11-14T16:15:12.167Z,12.40
2022-11-14T16:17:41.734Z,12.40
2022-11-14T16:20:36.061Z,12.30
2022-11-14T16:23:03.257Z,12.20
2022-11-14T16:25:38.094Z,12.20
2022-11-14T16:28:05.153Z,12.00
2022-11-14T16:30:39.154Z,12.10
2022-11-14T16:33:06.081Z,12.00
2022-11-14T16:35:33.115Z,12.10
2022-11-14T16:38:06.101Z,11.90
2022-11-14T16:40:39.139Z,11.90
2022-11-14T16:43:06.045Z,12.00
2022-11-14T16:45:32.959Z,11.90
2022-11-14T16:48:06.104Z,11.80
2022-11-14T16:50:32.994Z,11.80
2022-11-14T16:53:06.053Z,11.70
2022-11-14T16:55:32.980Z,11.70
2022-11-14T16:58:06.063Z,11.60
2022-11-14T17:00:33.017Z,11.60
2022-11-14T17:03:06.115Z,11.70
2022-11-14T17:05:33.023Z,11.40
2022-11-14T17:08:06.123Z,11.30
2022-11-14T17:10:33.040Z,11.20
2022-11-14T17:12:59.989Z,11.20
2022-11-14T17:15:33.222Z,11.20
2022-11-14T17:18:00.177Z,11.20
2022-11-14T17:20:33.101Z,11.20
2022-11-14T17:23:00.000Z,11.10
2022-11-14T17:25:33.134Z,11.10
2022-11-14T17:28:00.037Z,10.80
2022-11-14T17:30:33.112Z,10.70
2022-11-14T17:33:06.123Z,10.60
2022-11-14T17:35:35.978Z,10.60
2022-11-14T17:38:02.900Z,10.50
2022-11-14T17:40:36.161Z,10.40
2022-11-14T17:43:09.119Z,10.50
2022-11-14T17:45:40.968Z,10.40
2022-11-14T17:48:15.119Z,10.40
2022-11-14T17:50:42.077Z,10.40
2022-11-14T17:53:15.142Z,10.30
2022-11-14T17:55:42.180Z,10.30
2022-11-14T17:58:15.136Z,10.30
2022-11-14T18:00:42.034Z,10.10
2022-11-14T18:03:08.972Z,10.10
2022-11-14T18:05:42.175Z,10.00
2022-11-14T18:08:09.146Z,9.80
2022-11-14T18:10:43.155Z,9.80
2022-11-14T18:13:17.144Z,9.70
2022-11-14T18:15:44.083Z,9.70
2022-11-14T18:18:17.149Z,9.60
2022-11-14T18:20:50.159Z,9.50
2022-11-14T18:23:17.116Z,9.50
2022-11-14T18:25:44.087Z,9.50
2022-11-14T18:28:17.127Z,9.40
2022-11-14T18:30:55.420Z,9.40
2022-11-14T18:33:29.157Z,9.40
2022-11-14T18:36:06.132Z,9.50
2022-11-14T18:38:39.157Z,9.40
2022-11-14T18:41:13.126Z,9.40
2022-11-14T18:43:47.171Z,9.50
2022-11-14T18:46:22.062Z,9.50
2022-11-14T18:48:59.150Z,9.60
2022-11-14T18:51:28.842Z,9.60
2022-11-14T18:54:03.210Z,9.60
2022-11-14T18:56:37.144Z,9.50
2022-11-14T18:59:04.432Z,9.50
2022-11-14T19:01:38.221Z,9.50
2022-11-14T19:04:14.233Z,9.50
2022-11-14T19:06:48.247Z,9.50
2022-11-14T19:09:15.622Z,9.60
2022-11-14T19:11:49.209Z,9.50
2022-11-14T19:14:16.179Z,9.60
2022-11-14T19:16:49.207Z,9.50
2022-11-14T19:19:16.203Z,9.50
2022-11-14T19:21:43.282Z,9.60
2022-11-14T19:24:17.214Z,9.60
2022-11-14T19:26:44.361Z,9.70
2022-11-14T19:29:12.002Z,9.70
2022-11-14T19:31:46.180Z,9.80
2022-11-14T19:34:20.276Z,9.80
2022-11-14T19:36:59.919Z,9.70
2022-11-14T19:39:35.248Z,9.60
2022-11-14T19:42:03.111Z,9.60
2022-11-14T19:44:30.138Z,9.60
2022-11-14T19:47:04.259Z,9.60
2022-11-14T19:49:41.595Z,9.50
2022-11-14T19:52:17.931Z,9.50
2022-11-14T19:54:52.522Z,9.50
2022-11-14T19:57:26.587Z,9.50
2022-11-14T19:59:54.378Z,9.40
2022-11-14T20:02:28.494Z,9.40
2022-11-14T20:04:55.701Z,9.50
2022-11-14T20:07:29.326Z,9.30
2022-11-14T20:09:56.624Z,9.30
2022-11-14T20:12:30.599Z,9.30
2022-11-14T20:14:57.836Z,9.10
2022-11-14T20:17:24.968Z,9.10
2022-11-14T20:20:00.562Z,9.00
2022-11-14T20:22:27.740Z,9.00
2022-11-14T20:25:01.379Z,8.90
2022-11-14T20:27:35.314Z,8.90
2022-11-14T20:30:09.391Z,8.80
2022-11-14T20:32:43.479Z,8.70
2022-11-14T20:35:11.003Z,8.70
2022-11-14T20:37:38.342Z,8.60
2022-11-14T20:40:13.346Z,8.50
2022-11-14T20:42:40.565Z,8.40
2022-11-14T20:45:20.169Z,8.30
2022-11-14T20:47:47.029Z,8.30
2022-11-14T20:50:20.235Z,8.30
2022-11-14T20:52:47.908Z,8.30
2022-11-14T20:55:15.304Z,8.40
2022-11-14T20:57:48.178Z,8.30
2022-11-14T21:00:15.678Z,8.30
2022-11-14T21:02:49.306Z,8.40
2022-11-14T21:05:16.212Z,8.40
2022-11-14T21:07:49.188Z,8.30
2022-11-14T21:10:16.550Z,8.30
2022-11-14T21:12:50.192Z,8.20
2022-11-14T21:15:17.202Z,8.20
2022-11-14T21:17:50.176Z,8.20
2022-11-14T21:20:17.208Z,8.20
2022-11-14T21:22:50.191Z,8.30
2022-11-14T21:25:23.190Z,8.20
2022-11-14T21:27:50.021Z,8.20
2022-11-14T21:30:23.237Z,8.30
2022-11-14T21:32:53.143Z,8.40
2022-11-14T21:35:26.207Z,8.40
2022-11-14T21:37:53.042Z,8.30
2022-11-14T21:40:26.205Z,8.30
2022-11-14T21:42:53.107Z,8.30
2022-11-14T21:45:26.203Z,8.20
2022-11-14T21:47:53.046Z,8.20
2022-11-14T21:50:19.903Z,8.20
2022-11-14T21:52:53.210Z,8.10
2022-11-14T21:55:26.247Z,8.00
2022-11-14T21:58:02.223Z,8.00
2022-11-14T22:00:35.353Z,8.00
2022-11-14T22:03:02.245Z,7.90
2022-11-14T22:05:29.110Z,7.90
2022-11-14T22:08:02.214Z,7.90
2022-11-14T22:10:29.036Z,7.80
2022-11-14T22:13:02.216Z,7.70
2022-11-14T22:15:35.226Z,7.70
2022-11-14T22:18:02.172Z,7.70
2022-11-14T22:20:35.241Z,7.70
2022-11-14T22:23:02.122Z,7.70
2022-11-14T22:25:35.204Z,7.70
2022-11-14T22:28:02.138Z,7.70
2022-11-14T22:30:35.220Z,7.70
2022-11-14T22:33:02.100Z,7.60
2022-11-14T22:35:35.244Z,7.40
2022-11-14T22:38:02.114Z,7.40
2022-11-14T22:40:35.301Z,7.30
2022-11-14T22:43:02.153Z,7.30
2022-11-14T22:45:35.259Z,7.30
2022-11-14T22:48:02.139Z,7.20
2022-11-14T22:50:35.226Z,7.30
2022-11-14T22:53:02.073Z,7.40
2022-11-14T22:55:35.226Z,7.40
2022-11-14T22:58:08.236Z,7.30
2022-11-14T23:00:35.128Z,7.30
2022-11-14T23:03:08.332Z,7.40
2022-11-14T23:05:36.820Z,7.40
2022-11-14T23:08:11.267Z,7.30
2022-11-14T23:10:38.184Z,7.30
2022-11-14T23:13:11.259Z,7.30
2022-11-14T23:15:38.384Z,7.20
2022-11-14T23:18:12.272Z,7.10
2022-11-14T23:20:39.141Z,7.10
2022-11-14T23:23:12.237Z,7.20
2022-11-14T23:25:39.087Z,7.20
2022-11-14T23:28:12.260Z,7.20
2022-11-14T23:30:39.179Z,7.20
2022-11-14T23:33:12.280Z,7.20
2022-11-14T23:35:39.096Z,7.20
2022-11-14T23:38:12.260Z,7.20
2022-11-14T23:40:39.117Z,7.30
2022-11-14T23:43:05.980Z,7.30
2022-11-14T23:45:39.270Z,7.30
2022-11-14T23:48:13.071Z,7.40
2022-11-14T23:50:46.315Z,7.40
2022-11-14T23:53:13.206Z,7.40
2022-11-14T23:55:46.265Z,7.50
2022-11-14T23:58:13.154Z,7.50
